createdAt,value
2018-10-17T00:00:22.368Z,100639.33
2018-10-17T00:02:51.201Z,100638.70
2018-10-17T00:05:20.057Z,100642.44
2018-10-17T00:07:48.921Z,100630.66
2018-10-17T00:10:18.107Z,100632.57
2018-10-17T00:12:46.910Z,100634.70
2018-10-17T00:15:15.805Z,100639.41
2018-10-17T00:17:44.666Z,100641.06
2018-10-17T00:20:13.503Z,100639.12
2018-10-17T00:22:42.334Z,100638.81
2018-10-17T00:25:11.336Z,100640.71
2018-10-17T00:27:40.172Z,100642.15
2018-10-17T00:30:11.074Z,100641.68
2018-10-17T00:32:39.961Z,100641.91
2018-10-17T00:35:09.793Z,100638.99
2018-10-17T00:37:38.652Z,100638.52
2018-10-17T00:40:07.750Z,100641.41
2018-10-17T00:42:36.842Z,100645.29
2018-10-17T00:45:06.626Z,100636.13
2018-10-17T00:47:35.584Z,100636.63
2018-10-17T00:50:04.501Z,100631.23
2018-10-17T00:52:33.387Z,100625.36
2018-10-17T00:55:02.401Z,100629.02
2018-10-17T00:57:31.225Z,100632.79
2018-10-17T01:00:00.113Z,100631.20
2018-10-17T01:02:28.974Z,100629.53
2018-10-17T01:04:57.834Z,100627.40
2018-10-17T01:07:26.634Z,100619.63
2018-10-17T01:09:55.594Z,100622.05
2018-10-17T01:12:24.431Z,100625.58
2018-10-17T01:14:54.493Z,100622.23
2018-10-17T01:17:24.071Z,100626.09
2018-10-17T01:19:53.066Z,100626.67
2018-10-17T01:22:21.967Z,100626.44
2018-10-17T01:24:50.794Z,100628.27
2018-10-17T01:27:19.705Z,100625.42
2018-10-17T01:29:50.847Z,100624.72
2018-10-17T01:32:19.715Z,100617.33
2018-10-17T01:34:48.583Z,100621.73
2018-10-17T01:37:17.412Z,100618.50
2018-10-17T01:39:46.363Z,100612.04
2018-10-17T01:42:15.356Z,100609.39
2018-10-17T01:44:45.174Z,100604.34
2018-10-17T01:47:14.217Z,100601.14
2018-10-17T01:49:43.183Z,100601.64
2018-10-17T01:52:11.923Z,100600.33
2018-10-17T01:54:40.777Z,100600.72
2018-10-17T01:57:09.725Z,100598.42
2018-10-17T01:59:38.568Z,100594.69
2018-10-17T02:02:07.530Z,100597.36
2018-10-17T02:04:36.334Z,100597.86
2018-10-17T02:07:05.420Z,100599.06
2018-10-17T02:09:34.324Z,100599.80
2018-10-17T02:12:03.248Z,100594.27
2018-10-17T02:14:32.060Z,100599.69
2018-10-17T02:17:01.306Z,100604.74
2018-10-17T02:19:30.153Z,100599.94
2018-10-17T02:21:59.153Z,100601.26
2018-10-17T02:24:27.962Z,100611.80
2018-10-17T02:26:56.806Z,100608.19
2018-10-17T02:29:25.640Z,100609.86
2018-10-17T02:31:54.570Z,100609.59
2018-10-17T02:34:23.407Z,100604.69
2018-10-17T02:36:52.355Z,100605.02
2018-10-17T02:39:21.376Z,100606.19
2018-10-17T02:41:50.214Z,100605.22
2018-10-17T02:44:19.083Z,100602.46
2018-10-17T02:46:47.936Z,100606.87
2018-10-17T02:49:16.831Z,100604.34
2018-10-17T02:51:45.659Z,100606.63
2018-10-17T02:54:14.526Z,100606.22
2018-10-17T02:56:43.370Z,100607.63
2018-10-17T02:59:12.299Z,100599.81
2018-10-17T03:01:41.573Z,100609.05
2018-10-17T03:04:10.413Z,100615.36
2018-10-17T03:06:39.194Z,100617.65
2018-10-17T03:09:09.111Z,100614.62
2018-10-17T03:11:37.837Z,100615.83
2018-10-17T03:14:06.683Z,100615.01
2018-10-17T03:16:35.603Z,100616.68
2018-10-17T03:19:04.506Z,100615.59
2018-10-17T03:21:33.458Z,100615.44
2018-10-17T03:24:02.309Z,100612.17
2018-10-17T03:26:31.514Z,100613.02
2018-10-17T03:29:00.374Z,100619.90
2018-10-17T03:31:29.314Z,100617.50
2018-10-17T03:33:58.135Z,100623.87
2018-10-17T03:36:26.973Z,100623.41
2018-10-17T03:38:55.943Z,100616.09
2018-10-17T03:41:24.760Z,100616.25
2018-10-17T03:43:53.607Z,100618.66
2018-10-17T03:46:22.503Z,100614.97
2018-10-17T03:48:52.291Z,100621.81
2018-10-17T03:51:21.569Z,100617.49
2018-10-17T03:53:50.576Z,100615.91
2018-10-17T03:56:19.748Z,100627.68
2018-10-17T03:58:48.854Z,100622.16
2018-10-17T04:01:19.395Z,100628.03
2018-10-17T04:03:48.997Z,100622.86
2018-10-17T04:09:09.094Z,100628.34
2018-10-17T04:11:37.875Z,100626.94
2018-10-17T04:14:06.727Z,100626.67
2018-10-17T04:16:35.612Z,100623.16
2018-10-17T04:19:04.560Z,100634.31
2018-10-17T04:21:33.463Z,100642.09
2018-10-17T04:24:02.405Z,100643.18
2018-10-17T04:26:31.300Z,100647.13
2018-10-17T04:29:00.154Z,100644.91
2018-10-17T04:31:29.001Z,100645.35
2018-10-17T04:33:57.857Z,100642.55
2018-10-17T04:36:26.759Z,100648.88
2018-10-17T04:38:56.759Z,100644.28
2018-10-17T04:41:25.622Z,100638.02
2018-10-17T04:43:54.376Z,100643.41
2018-10-17T04:46:23.265Z,100644.37
2018-10-17T04:48:52.260Z,100646.16
2018-10-17T04:51:21.066Z,100649.11
2018-10-17T04:53:49.943Z,100648.42
2018-10-17T04:56:18.763Z,100642.09
2018-10-17T04:58:47.612Z,100650.98
2018-10-17T05:01:16.504Z,100657.77
2018-10-17T05:03:45.410Z,100656.26
2018-10-17T05:06:14.332Z,100651.22
2018-10-17T05:08:43.250Z,100649.44
2018-10-17T05:11:12.165Z,100650.53
2018-10-17T05:13:42.832Z,100653.34
2018-10-17T05:16:11.664Z,100652.76
2018-10-17T05:18:40.630Z,100654.16
2018-10-17T05:21:09.441Z,100656.09
2018-10-17T05:23:38.527Z,100651.85
2018-10-17T05:26:07.398Z,100649.80
2018-10-17T05:28:36.232Z,100661.89
2018-10-17T05:31:05.296Z,100653.34
2018-10-17T05:33:34.273Z,100654.52
2018-10-17T05:36:03.191Z,100654.30
2018-10-17T05:38:32.106Z,100657.00
2018-10-17T05:41:01.054Z,100661.09
2018-10-17T05:43:30.106Z,100662.75
2018-10-17T05:45:59.080Z,100661.09
2018-10-17T05:48:28.779Z,100660.22
2018-10-17T05:50:57.623Z,100661.39
2018-10-17T05:53:26.503Z,100652.09
2018-10-17T05:55:55.347Z,100653.70
2018-10-17T05:58:24.303Z,100654.66
2018-10-17T06:00:53.203Z,100664.28
2018-10-17T06:03:22.059Z,100666.03
2018-10-17T06:05:51.070Z,100663.44
2018-10-17T06:08:19.959Z,100666.17
2018-10-17T06:10:48.771Z,100660.95
2018-10-17T06:13:17.614Z,100662.90
2018-10-17T06:15:46.414Z,100665.44
2018-10-17T06:18:15.180Z,100666.99
2018-10-17T06:20:44.142Z,100664.31
2018-10-17T06:23:13.142Z,100664.52
2018-10-17T06:28:47.090Z,100659.95
2018-10-17T06:31:15.836Z,100657.37
2018-10-17T06:33:44.337Z,100651.21
2018-10-17T06:36:12.947Z,100656.17
2018-10-17T06:38:41.500Z,100648.23
2018-10-17T06:41:10.253Z,100652.80
2018-10-17T06:43:38.821Z,100650.50
2018-10-17T06:46:07.313Z,100655.52
2018-10-17T06:48:38.391Z,100653.43
2018-10-17T06:51:07.035Z,100649.64
2018-10-17T06:53:35.572Z,100654.91
2018-10-17T06:56:04.170Z,100657.28
2018-10-17T06:58:32.786Z,100650.28
2018-10-17T07:01:01.625Z,100653.58
2018-10-17T07:03:31.049Z,100652.55
2018-10-17T07:06:01.396Z,100657.55
2018-10-17T07:08:31.754Z,100655.11
2018-10-17T07:11:01.177Z,100654.45
2018-10-17T07:13:31.459Z,100655.05
2018-10-17T07:16:01.764Z,100651.79
2018-10-17T07:18:31.406Z,100656.34
2018-10-17T07:21:01.473Z,100651.39
2018-10-17T07:23:30.964Z,100656.82
2018-10-17T07:26:01.076Z,100660.55
2018-10-17T07:28:30.895Z,100660.58
2018-10-17T07:31:01.246Z,100654.45
2018-10-17T07:33:30.812Z,100650.27
2018-10-17T07:36:01.766Z,100646.94
2018-10-17T07:38:32.486Z,100648.95
2018-10-17T07:41:01.851Z,100643.44
2018-10-17T07:43:34.280Z,100643.60
2018-10-17T07:46:03.900Z,100643.06
2018-10-17T07:48:33.428Z,100640.19
2018-10-17T07:51:03.558Z,100644.81
2018-10-17T07:53:32.477Z,100642.38
2018-10-17T07:56:01.732Z,100638.28
2018-10-17T07:58:30.784Z,100642.24
2018-10-17T08:00:59.971Z,100650.56
2018-10-17T08:03:31.098Z,100651.58
2018-10-17T08:05:59.990Z,100648.58
2018-10-17T08:08:29.611Z,100648.22
2018-10-17T08:11:00.052Z,100645.25
2018-10-17T08:13:29.590Z,100640.86
2018-10-17T08:16:00.312Z,100637.14
2018-10-17T08:18:31.639Z,100642.27
2018-10-17T08:21:01.467Z,100639.89
2018-10-17T08:23:30.883Z,100641.58
2018-10-17T08:25:59.959Z,100646.60
2018-10-17T08:28:29.465Z,100642.19
2018-10-17T08:30:58.834Z,100648.23
2018-10-17T08:33:30.287Z,100638.88
2018-10-17T08:35:59.864Z,100627.63
2018-10-17T08:38:29.231Z,100628.83
2018-10-17T08:40:58.707Z,100629.06
2018-10-17T08:43:28.011Z,100633.23
2018-10-17T08:45:57.082Z,100626.64
2018-10-17T08:48:27.753Z,100630.84
2018-10-17T08:50:57.615Z,100627.37
2018-10-17T08:53:27.758Z,100622.61
2018-10-17T08:55:56.960Z,100624.08
2018-10-17T08:58:25.802Z,100624.30
2018-10-17T09:00:54.694Z,100628.21
2018-10-17T09:03:24.700Z,100624.59
2018-10-17T09:05:53.763Z,100627.78
2018-10-17T09:08:24.806Z,100630.88
2018-10-17T09:10:53.852Z,100640.41
2018-10-17T09:13:24.809Z,100638.45
2018-10-17T09:15:53.762Z,100633.72
2018-10-17T09:18:22.652Z,100640.00
2018-10-17T09:20:52.430Z,100646.20
2018-10-17T09:23:21.644Z,100632.69
2018-10-17T09:25:52.842Z,100636.41
2018-10-17T09:28:21.709Z,100628.25
2018-10-17T09:30:50.560Z,100620.52
2018-10-17T09:33:19.418Z,100625.92
2018-10-17T09:35:48.370Z,100635.69
2018-10-17T09:38:17.415Z,100635.48
2018-10-17T09:40:46.349Z,100637.08
2018-10-17T09:43:15.558Z,100631.33
2018-10-17T09:45:44.485Z,100634.27
2018-10-17T09:48:13.477Z,100626.15
2018-10-17T09:50:42.253Z,100619.75
2018-10-17T09:53:12.293Z,100625.42
2018-10-17T09:55:41.516Z,100625.95
2018-10-17T09:58:10.317Z,100624.14
2018-10-17T10:00:44.339Z,100615.12
2018-10-17T10:03:13.174Z,100605.38
2018-10-17T10:05:42.028Z,100609.73
2018-10-17T10:08:10.858Z,100603.00
2018-10-17T10:10:40.144Z,100606.31
2018-10-17T10:13:09.082Z,100603.66
2018-10-17T10:15:38.306Z,100599.39
2018-10-17T10:18:07.250Z,100597.98
2018-10-17T10:20:36.110Z,100593.83
2018-10-17T10:23:05.116Z,100596.67
2018-10-17T10:25:34.033Z,100591.29
2018-10-17T10:28:03.652Z,100584.38
2018-10-17T10:30:32.529Z,100590.14
2018-10-17T10:33:02.327Z,100579.95
2018-10-17T10:35:34.711Z,100580.52
2018-10-17T10:38:03.686Z,100578.44
2018-10-17T10:40:32.590Z,100574.39
2018-10-17T10:43:01.856Z,100576.66
2018-10-17T10:45:31.111Z,100575.66
2018-10-17T10:48:00.130Z,100572.52
2018-10-17T10:50:28.871Z,100567.09
2018-10-17T10:52:57.779Z,100563.53
2018-10-17T10:55:26.611Z,100556.23
2018-10-17T10:57:55.901Z,100556.89
2018-10-17T11:00:24.695Z,100553.42
2018-10-17T11:02:53.574Z,100554.94
2018-10-17T11:05:22.542Z,100547.00
2018-10-17T11:07:51.332Z,100554.48
2018-10-17T11:10:20.427Z,100556.21
2018-10-17T11:12:49.327Z,100545.16
2018-10-17T11:15:18.299Z,100551.98
2018-10-17T11:17:47.578Z,100546.95
2018-10-17T11:20:16.455Z,100543.02
2018-10-17T11:22:45.277Z,100545.14
2018-10-17T11:25:14.125Z,100534.41
2018-10-17T11:27:42.911Z,100537.97
2018-10-17T11:30:12.514Z,100532.05
2018-10-17T11:32:41.636Z,100523.78
2018-10-17T11:35:11.684Z,100525.19
2018-10-17T11:37:40.415Z,100523.49
2018-10-17T11:40:09.611Z,100519.08
2018-10-17T11:42:38.354Z,100523.97
2018-10-17T11:45:07.299Z,100520.22
2018-10-17T11:47:36.851Z,100522.62
2018-10-17T11:50:07.533Z,100522.62
2018-10-17T11:52:36.440Z,100521.66
2018-10-17T11:55:06.512Z,100522.84
2018-10-17T11:57:35.389Z,100516.98
2018-10-17T12:00:04.530Z,100512.22
2018-10-17T12:02:33.477Z,100513.28
2018-10-17T12:05:03.829Z,100502.50
2018-10-17T12:07:32.589Z,100511.05
2018-10-17T12:10:01.513Z,100505.42
2018-10-17T12:12:30.278Z,100503.36
2018-10-17T12:14:59.256Z,100501.55
2018-10-17T12:17:28.223Z,100498.81
2018-10-17T12:19:58.223Z,100497.23
2018-10-17T12:22:27.076Z,100495.80
2018-10-17T12:24:56.012Z,100492.13
2018-10-17T12:27:24.930Z,100489.43
2018-10-17T12:29:54.185Z,100494.71
2018-10-17T12:32:23.133Z,100493.21
2018-10-17T12:34:52.101Z,100491.61
2018-10-17T12:37:20.978Z,100493.77
2018-10-17T12:39:49.869Z,100490.42
2018-10-17T12:42:18.763Z,100492.91
2018-10-17T12:44:49.571Z,100490.09
2018-10-17T12:47:18.465Z,100487.56
2018-10-17T12:49:47.322Z,100486.16
2018-10-17T12:52:16.370Z,100485.44
2018-10-17T12:54:45.170Z,100485.66
2018-10-17T12:57:15.415Z,100484.30
2018-10-17T12:59:49.802Z,100483.25
2018-10-17T13:02:18.667Z,100481.20
2018-10-17T13:04:47.894Z,100481.16
2018-10-17T13:07:16.904Z,100481.61
2018-10-17T13:09:45.704Z,100478.03
2018-10-17T13:12:14.535Z,100479.60
2018-10-17T13:14:43.576Z,100481.95
2018-10-17T13:17:12.492Z,100482.91
2018-10-17T13:19:41.390Z,100479.06
2018-10-17T13:22:11.432Z,100478.16
2018-10-17T13:24:40.677Z,100481.59
2018-10-17T13:27:09.523Z,100478.59
2018-10-17T13:29:38.386Z,100481.05
2018-10-17T13:32:07.222Z,100472.06
2018-10-17T13:34:36.122Z,100470.32
2018-10-17T13:37:05.316Z,100469.81
2018-10-17T13:39:34.135Z,100466.30
2018-10-17T13:42:03.012Z,100469.52
2018-10-17T13:44:31.767Z,100468.56
2018-10-17T13:47:01.021Z,100465.84
2018-10-17T13:49:29.845Z,100471.67
2018-10-17T13:51:58.810Z,100467.13
2018-10-17T13:54:27.602Z,100470.02
2018-10-17T13:56:56.465Z,100465.97
2018-10-17T13:59:25.451Z,100467.67
2018-10-17T14:01:54.271Z,100469.88
2018-10-17T14:04:23.104Z,100465.52
2018-10-17T14:09:43.032Z,100462.19
2018-10-17T14:12:11.950Z,100465.41
2018-10-17T14:14:41.262Z,100465.64
2018-10-17T14:17:10.155Z,100461.59
2018-10-17T14:19:39.112Z,100455.72
2018-10-17T14:22:08.940Z,100464.42
2018-10-17T14:24:37.803Z,100462.10
2018-10-17T14:27:07.392Z,100464.76
2018-10-17T14:29:36.464Z,100465.26
2018-10-17T14:32:06.431Z,100464.76
2018-10-17T14:34:35.520Z,100462.39
2018-10-17T14:37:04.430Z,100466.44
2018-10-17T14:39:33.337Z,100466.58
2018-10-17T14:42:02.240Z,100462.55
2018-10-17T14:44:31.365Z,100461.84
2018-10-17T14:47:00.241Z,100465.59
2018-10-17T14:49:29.560Z,100461.25
2018-10-17T14:51:58.339Z,100465.81
2018-10-17T14:54:27.218Z,100466.82
2018-10-17T14:56:56.040Z,100466.02
2018-10-17T14:59:24.937Z,100458.59
2018-10-17T15:01:54.237Z,100459.91
2018-10-17T15:04:23.148Z,100455.52
2018-10-17T15:06:52.016Z,100464.20
2018-10-17T15:09:20.912Z,100465.21
2018-10-17T15:11:50.079Z,100465.56
2018-10-17T15:14:18.744Z,100475.97
2018-10-17T15:16:48.386Z,100470.93
2018-10-17T15:19:17.240Z,100477.20
2018-10-17T15:21:46.168Z,100485.02
2018-10-17T15:24:15.161Z,100475.77
2018-10-17T15:26:44.226Z,100477.23
2018-10-17T15:29:13.028Z,100477.92
2018-10-17T15:31:41.893Z,100480.34
2018-10-17T15:34:10.827Z,100482.53
2018-10-17T15:36:39.647Z,100480.80
2018-10-17T15:39:10.128Z,100480.36
2018-10-17T15:41:39.100Z,100480.40
2018-10-17T15:44:08.463Z,100479.16
2018-10-17T15:46:37.560Z,100487.84
2018-10-17T15:49:07.107Z,100481.09
2018-10-17T15:51:35.997Z,100480.06
2018-10-17T15:54:05.449Z,100478.06
2018-10-17T15:56:34.254Z,100485.44
2018-10-17T15:59:03.080Z,100494.11
2018-10-17T16:01:31.935Z,100492.02
2018-10-17T16:04:00.881Z,100489.62
2018-10-17T16:06:30.171Z,100490.04
2018-10-17T16:08:58.984Z,100487.44
2018-10-17T16:11:28.234Z,100494.48
2018-10-17T16:13:57.562Z,100499.19
2018-10-17T16:16:26.681Z,100502.88
2018-10-17T16:18:56.416Z,100494.67
2018-10-17T16:21:25.769Z,100500.14
2018-10-17T16:23:55.768Z,100500.81
2018-10-17T16:26:25.052Z,100506.97
2018-10-17T16:29:01.629Z,100507.44
2018-10-17T16:31:37.825Z,100512.72
2018-10-17T16:34:09.087Z,100508.02
2018-10-17T16:36:37.816Z,100513.66
2018-10-17T16:39:09.693Z,100511.30
2018-10-17T16:41:39.308Z,100519.52
2018-10-17T16:44:08.768Z,100514.09
2018-10-17T16:46:38.324Z,100519.00
2018-10-17T16:49:08.102Z,100525.37
2018-10-17T16:51:37.190Z,100528.98
2018-10-17T16:54:06.271Z,100529.59
2018-10-17T16:56:35.190Z,100528.36
2018-10-17T16:59:04.710Z,100534.73
2018-10-17T17:01:33.559Z,100537.00
2018-10-17T17:04:03.600Z,100537.05
2018-10-17T17:06:32.723Z,100540.05
2018-10-17T17:09:02.593Z,100541.13
2018-10-17T17:11:33.979Z,100548.70
2018-10-17T17:14:02.923Z,100550.13
2018-10-17T17:16:31.932Z,100548.52
2018-10-17T17:19:02.857Z,100549.12
2018-10-17T17:21:31.851Z,100548.63
2018-10-17T17:24:00.682Z,100545.39
2018-10-17T17:26:29.579Z,100555.64
2018-10-17T17:28:58.443Z,100558.60
2018-10-17T17:31:27.700Z,100560.45
2018-10-17T17:33:56.555Z,100557.71
2018-10-17T17:36:25.540Z,100564.11
2018-10-17T17:38:54.366Z,100556.00
2018-10-17T17:41:24.061Z,100559.44
2018-10-17T17:43:52.959Z,100563.92
2018-10-17T17:46:24.037Z,100557.11
2018-10-17T17:48:52.943Z,100558.92
2018-10-17T17:51:22.119Z,100555.73
2018-10-17T17:53:51.020Z,100554.32
2018-10-17T17:56:19.886Z,100554.72
2018-10-17T17:58:48.908Z,100555.15
2018-10-17T18:01:18.645Z,100556.06
2018-10-17T18:03:47.952Z,100559.48
2018-10-17T18:06:16.840Z,100563.25
2018-10-17T18:08:45.777Z,100562.06
2018-10-17T18:11:23.152Z,100565.23
2018-10-17T18:13:53.144Z,100565.34
2018-10-17T18:16:22.041Z,100570.32
2018-10-17T18:18:50.873Z,100571.20
2018-10-17T18:21:19.697Z,100570.88
2018-10-17T18:23:48.523Z,100576.18
2018-10-17T18:26:17.364Z,100580.49
2018-10-17T18:28:46.577Z,100584.29
2018-10-17T18:31:15.368Z,100581.47
2018-10-17T18:33:44.318Z,100578.99
2018-10-17T18:36:23.839Z,100585.47
2018-10-17T18:38:52.916Z,100585.98
2018-10-17T18:41:21.832Z,100594.09
2018-10-17T18:43:51.152Z,100589.13
2018-10-17T18:46:22.579Z,100594.23
2018-10-17T18:48:52.238Z,100595.90
2018-10-17T18:51:21.134Z,100599.55
2018-10-17T18:53:50.016Z,100600.16
2018-10-17T18:56:19.016Z,100600.77
2018-10-17T18:58:47.869Z,100596.48
2018-10-17T19:01:17.304Z,100598.45
2018-10-17T19:03:46.484Z,100603.45
2018-10-17T19:06:15.623Z,100605.52
2018-10-17T19:08:44.971Z,100605.95
2018-10-17T19:11:16.298Z,100608.04
2018-10-17T19:13:47.456Z,100609.89
2018-10-17T19:16:16.435Z,100612.56
2018-10-17T19:18:46.315Z,100620.92
2018-10-17T19:21:15.970Z,100619.23
2018-10-17T19:23:44.902Z,100623.35
2018-10-17T19:26:14.311Z,100619.56
2018-10-17T19:28:43.613Z,100625.00
2018-10-17T19:31:12.884Z,100625.33
2018-10-17T19:33:42.201Z,100622.20
2018-10-17T19:36:11.130Z,100623.87
2018-10-17T19:38:39.930Z,100631.48
2018-10-17T19:41:09.074Z,100621.10
2018-10-17T19:43:38.095Z,100626.41
2018-10-17T19:46:07.943Z,100624.87
2018-10-17T19:48:39.834Z,100622.57
2018-10-17T19:51:08.777Z,100626.69
2018-10-17T19:53:38.232Z,100620.10
2018-10-17T19:56:07.134Z,100624.09
2018-10-17T19:58:39.171Z,100626.73
2018-10-17T20:01:08.122Z,100633.37
2018-10-17T20:03:36.973Z,100631.09
2018-10-17T20:06:06.193Z,100627.13
2018-10-17T20:08:36.534Z,100630.02
2018-10-17T20:11:05.605Z,100633.40
2018-10-17T20:13:34.644Z,100632.08
2018-10-17T20:16:03.565Z,100636.05
2018-10-17T20:18:32.378Z,100637.97
2018-10-17T20:21:01.703Z,100633.52
2018-10-17T20:23:30.516Z,100637.02
2018-10-17T20:25:59.737Z,100634.97
2018-10-17T20:28:28.697Z,100634.23
2018-10-17T20:31:38.553Z,100633.52
2018-10-17T20:34:08.107Z,100642.55
2018-10-17T20:36:36.947Z,100642.06
2018-10-17T20:39:09.719Z,100645.65
2018-10-17T20:41:38.878Z,100648.53
2018-10-17T20:44:07.770Z,100647.54
2018-10-17T20:46:37.419Z,100650.44
2018-10-17T20:49:06.863Z,100648.84
2018-10-17T20:51:35.819Z,100646.91
2018-10-17T20:54:04.718Z,100644.28
2018-10-17T20:56:34.036Z,100642.58
2018-10-17T20:59:02.887Z,100647.26
2018-10-17T21:01:32.047Z,100641.84
2018-10-17T21:04:00.844Z,100646.64
2018-10-17T21:06:29.790Z,100648.64
2018-10-17T21:08:58.580Z,100652.33
2018-10-17T21:11:27.541Z,100646.77
2018-10-17T21:13:56.365Z,100643.13
2018-10-17T21:16:26.440Z,100647.53
2018-10-17T21:18:55.533Z,100646.83
2018-10-17T21:21:24.596Z,100650.69
2018-10-17T21:23:53.396Z,100653.80
2018-10-17T21:26:23.479Z,100656.09
2018-10-17T21:28:55.025Z,100649.48
2018-10-17T21:31:28.012Z,100642.66
2018-10-17T21:33:58.746Z,100649.16
2018-10-17T21:36:27.787Z,100649.48
2018-10-17T21:38:57.447Z,100652.91
2018-10-17T21:41:26.268Z,100649.68
2018-10-17T21:43:55.290Z,100652.33
2018-10-17T21:46:25.681Z,100647.27
2018-10-17T21:48:55.771Z,100651.35
2018-10-17T21:51:24.685Z,100643.42
2018-10-17T21:53:54.913Z,100643.30
2018-10-17T21:56:23.740Z,100643.19
2018-10-17T21:58:53.594Z,100640.54
2018-10-17T22:01:22.527Z,100649.64
2018-10-17T22:03:51.355Z,100644.36
2018-10-17T22:06:20.195Z,100638.02
2018-10-17T22:08:49.123Z,100639.09
2018-10-17T22:11:18.003Z,100634.93
2018-10-17T22:13:46.904Z,100634.31
2018-10-17T22:16:15.978Z,100630.34
2018-10-17T22:18:46.350Z,100632.72
2018-10-17T22:21:15.219Z,100632.58
2018-10-17T22:23:44.232Z,100638.64
2018-10-17T22:26:13.226Z,100641.36
2018-10-17T22:28:42.506Z,100648.91
2018-10-17T22:31:11.274Z,100647.55
2018-10-17T22:33:40.141Z,100650.59
2018-10-17T22:36:09.445Z,100654.39
2018-10-17T22:38:38.421Z,100655.44
2018-10-17T22:41:07.754Z,100649.38
2018-10-17T22:43:37.097Z,100654.15
2018-10-17T22:46:06.251Z,100648.34
2018-10-17T22:48:35.115Z,100651.22
2018-10-17T22:51:03.963Z,100650.13
2018-10-17T22:53:32.803Z,100646.67
2018-10-17T22:56:01.663Z,100651.44
2018-10-17T22:58:30.551Z,100649.95
2018-10-17T23:00:59.418Z,100654.49
2018-10-17T23:03:29.008Z,100657.47
2018-10-17T23:05:57.837Z,100653.70
2018-10-17T23:08:27.022Z,100651.75
2018-10-17T23:10:55.951Z,100659.31
2018-10-17T23:13:24.799Z,100656.20
2018-10-17T23:15:53.752Z,100644.21
2018-10-17T23:18:22.617Z,100650.59
2018-10-17T23:20:51.471Z,100645.83
2018-10-17T23:23:20.368Z,100642.33
2018-10-17T23:25:49.121Z,100647.42
2018-10-17T23:28:18.052Z,100649.95
2018-10-17T23:30:46.902Z,100649.33
2018-10-17T23:33:15.681Z,100657.87
2018-10-17T23:35:44.538Z,100650.59
2018-10-17T23:38:13.482Z,100653.20
2018-10-17T23:40:42.335Z,100655.34
2018-10-17T23:43:11.458Z,100650.70
2018-10-17T23:45:40.505Z,100649.44
2018-10-17T23:48:10.267Z,100646.44
2018-10-17T23:50:39.730Z,100652.57
2018-10-17T23:53:10.177Z,100652.46
2018-10-17T23:55:39.050Z,100651.77
2018-10-17T23:58:07.962Z,100649.06
